Terminal Aerodrome Forecast
Issued by NWS

Home | Current Version | Previous Version | Text Only | Print | Product List | Glossary On
Versions: 1 2 3 4 5 6 7 8 9 10 11 12 13
000
FTUS45 KRIW 221100
TAFBPI
TAF
KBPI 221134Z 2212/2312 VRB05KT 5SM -SHRA BR SCT008 OVC015
      TEMPO 2212/2215 2SM BR BKN008
     FM221600 VRB05KT P6SM VCSH SCT015 BKN030
     FM221800 30010KT P6SM VCSH SCT040 BKN050 PROB30 2221/2224 -TSRA
      BKN040CB
     FM230200 34005KT P6SM BKN070=

USA.gov is the U.S. government's official web portal to all federal, state and local government web resources and services.